createdAt,value
2018-03-19T00:01:49.451Z,-0.60
2018-03-19T00:04:16.916Z,-0.50
2018-03-19T00:06:45.135Z,-0.60
2018-03-19T00:09:12.596Z,-0.60
2018-03-19T00:11:40.056Z,-0.70
2018-03-19T00:14:07.519Z,-0.70
2018-03-19T00:16:34.979Z,-0.60
2018-03-19T00:19:02.425Z,-0.60
2018-03-19T00:21:29.888Z,-0.60
2018-03-19T00:23:57.351Z,-0.60
2018-03-19T00:26:24.803Z,-0.60
2018-03-19T00:28:52.258Z,-0.70
2018-03-19T00:31:19.734Z,-0.60
2018-03-19T00:33:47.197Z,-0.50
2018-03-19T00:36:14.648Z,-0.50
2018-03-19T00:38:42.106Z,-0.50
2018-03-19T00:41:09.578Z,-0.50
2018-03-19T00:43:37.039Z,-0.50
2018-03-19T00:46:05.316Z,-0.70
2018-03-19T00:48:32.783Z,-0.70
2018-03-19T00:51:00.343Z,-0.60
2018-03-19T00:53:27.803Z,-0.60
2018-03-19T00:55:56.030Z,-0.50
2018-03-19T00:58:23.515Z,-0.50
2018-03-19T01:00:50.960Z,-0.50
2018-03-19T01:03:18.423Z,-0.40
2018-03-19T01:05:45.876Z,-0.60
2018-03-19T01:08:13.342Z,-0.60
2018-03-19T01:10:40.797Z,-0.60
2018-03-19T01:13:08.268Z,-0.50
2018-03-19T01:15:35.815Z,-0.50
2018-03-19T01:18:03.280Z,-0.50
2018-03-19T01:20:30.740Z,-0.50
2018-03-19T01:22:58.225Z,-0.60
2018-03-19T01:25:26.444Z,-0.60
2018-03-19T01:27:53.920Z,-0.60
2018-03-19T01:30:21.377Z,-0.50
2018-03-19T01:32:48.845Z,-0.50
2018-03-19T01:35:16.324Z,-0.40
2018-03-19T01:37:44.560Z,-0.50
2018-03-19T01:40:12.013Z,-0.50
2018-03-19T01:42:39.472Z,-0.50
2018-03-19T01:45:06.927Z,-0.50
2018-03-19T01:47:34.394Z,-0.50
2018-03-19T01:50:01.877Z,-0.50
2018-03-19T01:52:41.341Z,-0.50
2018-03-19T01:55:09.566Z,-0.50
2018-03-19T01:57:37.053Z,-0.50
2018-03-19T02:00:04.517Z,-0.50
2018-03-19T02:02:32.741Z,-0.40
2018-03-19T02:05:00.214Z,-0.40
2018-03-19T02:07:27.688Z,-0.50
2018-03-19T02:09:55.148Z,-0.40
2018-03-19T02:12:22.612Z,-0.50
2018-03-19T02:14:50.081Z,-0.50
2018-03-19T02:17:18.305Z,-0.60
2018-03-19T02:19:45.776Z,-0.60
2018-03-19T02:22:13.232Z,-0.60
2018-03-19T02:24:40.705Z,-0.50
2018-03-19T02:27:08.152Z,-0.50
2018-03-19T02:29:35.616Z,-0.50
2018-03-19T02:32:03.073Z,-0.70
2018-03-19T02:34:30.532Z,-0.70
2018-03-19T02:36:57.986Z,-0.60
2018-03-19T02:39:25.521Z,-0.60
2018-03-19T02:41:52.938Z,-0.50
2018-03-19T02:44:21.158Z,-0.50
2018-03-19T02:46:48.629Z,-0.50
2018-03-19T02:49:16.100Z,-0.50
2018-03-19T02:51:43.556Z,-0.40
2018-03-19T02:54:11.040Z,-0.60
2018-03-19T02:56:39.269Z,-0.40
2018-03-19T02:59:06.735Z,-0.40
2018-03-19T03:01:34.198Z,-0.40
2018-03-19T03:04:01.670Z,-0.40
2018-03-19T03:06:29.137Z,-0.40
2018-03-19T03:08:57.380Z,-0.50
2018-03-19T03:11:24.864Z,-0.50
2018-03-19T03:13:52.313Z,-0.50
2018-03-19T03:16:19.783Z,-0.50
2018-03-19T03:18:47.239Z,-0.60
2018-03-19T03:21:15.460Z,-0.60
2018-03-19T03:23:42.917Z,-0.60
2018-03-19T03:26:10.382Z,-0.50
2018-03-19T03:28:37.865Z,-0.50
2018-03-19T03:31:05.320Z,-0.60
2018-03-19T03:33:32.772Z,-0.60
2018-03-19T03:36:00.240Z,-0.60
2018-03-19T03:38:27.717Z,-0.70
2018-03-19T03:40:55.953Z,-0.60
2018-03-19T03:43:23.414Z,-0.60
2018-03-19T03:45:50.893Z,-0.60
2018-03-19T03:48:18.350Z,-0.60
2018-03-19T03:50:45.815Z,-0.50
2018-03-19T03:53:13.316Z,-0.50
2018-03-19T03:55:40.774Z,-0.50
2018-03-19T03:58:09.082Z,-0.50
2018-03-19T04:00:36.534Z,-0.60
2018-03-19T04:03:03.987Z,-0.50
2018-03-19T04:05:31.449Z,-0.50
2018-03-19T04:07:58.915Z,-0.50
2018-03-19T04:10:26.384Z,-0.50
2018-03-19T04:12:53.850Z,-0.50
2018-03-19T04:15:22.091Z,-0.40
2018-03-19T04:17:49.563Z,-0.40
2018-03-19T04:20:17.033Z,-0.60
2018-03-19T04:22:46.060Z,-0.60
2018-03-19T04:25:14.280Z,-0.50
2018-03-19T04:27:41.739Z,-0.50
2018-03-19T04:30:09.197Z,-0.60
2018-03-19T04:32:36.668Z,-0.50
2018-03-19T04:35:04.132Z,-0.50
2018-03-19T04:37:31.608Z,-0.60
2018-03-19T04:39:59.839Z,-0.70
2018-03-19T04:42:27.294Z,-0.60
2018-03-19T04:44:54.749Z,-0.70
2018-03-19T04:47:22.226Z,-0.70
2018-03-19T04:49:49.662Z,-0.70
2018-03-19T04:52:17.133Z,-0.70
2018-03-19T04:54:44.609Z,-0.70
2018-03-19T04:57:12.083Z,-0.70
2018-03-19T04:59:40.331Z,-0.60
2018-03-19T05:02:07.793Z,-0.70
2018-03-19T05:04:36.013Z,-0.60
2018-03-19T05:07:03.496Z,-0.60
2018-03-19T05:09:30.990Z,-0.70
2018-03-19T05:11:58.439Z,-0.70
2018-03-19T05:14:39.653Z,-0.60
2018-03-19T05:17:07.906Z,-0.70
2018-03-19T05:19:36.140Z,-0.70
2018-03-19T05:22:03.643Z,-0.70
2018-03-19T05:24:31.108Z,-0.70
2018-03-19T05:26:59.355Z,-0.60
2018-03-19T05:29:26.824Z,-0.60
2018-03-19T05:31:54.285Z,-0.60
2018-03-19T05:34:21.772Z,-0.60
2018-03-19T05:36:49.988Z,-0.70
2018-03-19T05:39:17.481Z,-0.70
2018-03-19T05:41:44.921Z,-0.70
2018-03-19T05:44:12.384Z,-0.70
2018-03-19T05:46:39.841Z,-0.60
2018-03-19T05:49:07.347Z,-0.70
2018-03-19T05:51:34.774Z,-0.70
2018-03-19T05:54:02.255Z,-0.70
2018-03-19T05:56:29.711Z,-0.70
2018-03-19T05:58:57.963Z,-0.80
2018-03-19T06:01:26.199Z,-0.80
2018-03-19T06:03:53.683Z,-0.80
2018-03-19T06:06:21.128Z,-0.80
2018-03-19T06:08:48.602Z,-0.80
2018-03-19T06:11:16.833Z,-0.70
2018-03-19T06:13:44.302Z,-0.80
2018-03-19T06:16:11.760Z,-0.70
2018-03-19T06:18:40.289Z,-0.70
2018-03-19T06:21:07.765Z,-0.60
2018-03-19T06:23:35.222Z,-0.60
2018-03-19T06:26:02.689Z,-0.50
2018-03-19T06:28:30.132Z,-0.60
2018-03-19T06:30:57.628Z,-0.50
2018-03-19T06:33:25.081Z,-0.50
2018-03-19T06:35:52.532Z,-0.50
2018-03-19T06:38:20.007Z,-0.60
2018-03-19T06:40:47.478Z,-0.50
2018-03-19T06:43:14.947Z,-0.50
2018-03-19T06:45:43.932Z,-0.50
2018-03-19T06:48:12.913Z,-0.40
2018-03-19T06:50:40.368Z,-0.40
2018-03-19T06:53:07.827Z,-0.40
2018-03-19T06:55:35.317Z,-0.40
2018-03-19T06:58:02.756Z,-0.40
2018-03-19T07:00:31.761Z,-0.40
2018-03-19T07:03:00.109Z,-0.30
2018-03-19T07:05:27.560Z,-0.30
2018-03-19T07:07:55.030Z,-0.20
2018-03-19T07:10:22.490Z,-0.20
2018-03-19T07:12:49.961Z,-0.20
2018-03-19T07:15:17.416Z,-0.10
2018-03-19T07:17:44.873Z,-0.30
2018-03-19T07:20:13.853Z,-0.20
2018-03-19T07:22:41.380Z,-0.20
2018-03-19T07:25:08.841Z,-0.30
2018-03-19T07:27:36.297Z,-0.30
2018-03-19T07:30:03.764Z,-0.20
2018-03-19T07:32:31.231Z,-0.20
2018-03-19T07:34:58.768Z,-0.10
2018-03-19T07:37:26.269Z,-0.10
2018-03-19T07:39:53.678Z,0.00
2018-03-19T07:42:21.136Z,0.00
2018-03-19T07:44:48.596Z,-0.20
2018-03-19T07:47:16.156Z,-0.10
2018-03-19T07:49:43.622Z,-0.10
2018-03-19T07:52:11.097Z,-0.10
2018-03-19T07:54:38.556Z,-0.10
2018-03-19T07:57:06.009Z,0.00
2018-03-19T07:59:33.460Z,0.10
2018-03-19T08:02:00.925Z,0.20
2018-03-19T08:04:28.376Z,0.20
2018-03-19T08:06:55.845Z,0.20
2018-03-19T08:09:23.304Z,0.20
2018-03-19T08:11:50.759Z,0.40
2018-03-19T08:14:18.238Z,0.30
2018-03-19T08:16:45.692Z,0.40
2018-03-19T08:19:13.924Z,0.60
2018-03-19T08:21:41.372Z,0.60
2018-03-19T08:24:08.831Z,0.70
2018-03-19T08:26:36.281Z,0.80
2018-03-19T08:29:03.739Z,0.90
2018-03-19T08:31:31.200Z,0.90
2018-03-19T08:33:58.654Z,0.90
2018-03-19T08:36:26.108Z,1.00
2018-03-19T08:38:53.564Z,1.10
2018-03-19T08:41:21.040Z,1.20
2018-03-19T08:43:48.497Z,1.20
2018-03-19T08:46:15.945Z,1.20
2018-03-19T08:48:44.017Z,1.30
2018-03-19T08:51:12.161Z,1.40
2018-03-19T08:53:40.399Z,1.60
2018-03-19T08:56:07.844Z,1.60
2018-03-19T08:58:35.331Z,1.60
2018-03-19T09:01:02.791Z,1.60
2018-03-19T09:03:31.010Z,1.60
2018-03-19T09:05:58.490Z,1.60
2018-03-19T09:08:25.958Z,1.50
2018-03-19T09:10:53.417Z,1.60
2018-03-19T09:13:20.903Z,1.60
2018-03-19T09:15:49.116Z,1.70
2018-03-19T09:18:16.570Z,1.70
2018-03-19T09:20:44.041Z,1.80
2018-03-19T09:23:11.497Z,1.80
2018-03-19T09:25:38.957Z,1.90
2018-03-19T09:28:06.419Z,2.00
2018-03-19T09:30:33.872Z,1.90
2018-03-19T09:33:01.342Z,1.90
2018-03-19T09:35:28.818Z,2.00
2018-03-19T09:37:56.273Z,2.10
2018-03-19T09:40:23.829Z,2.20
2018-03-19T09:42:51.293Z,2.20
2018-03-19T09:45:18.744Z,2.00
2018-03-19T09:47:46.972Z,2.20
2018-03-19T09:50:14.428Z,2.20
2018-03-19T09:52:41.906Z,2.20
2018-03-19T09:55:09.358Z,2.10
2018-03-19T09:57:36.821Z,2.10
2018-03-19T10:00:04.341Z,2.00
2018-03-19T10:02:32.560Z,1.90
2018-03-19T10:05:00.032Z,1.90
2018-03-19T10:07:27.506Z,2.10
2018-03-19T10:09:54.999Z,2.20
2018-03-19T10:12:23.240Z,2.10
2018-03-19T10:14:50.718Z,2.10
2018-03-19T10:17:18.935Z,2.10
2018-03-19T10:19:46.381Z,2.10
2018-03-19T10:22:13.852Z,2.10
2018-03-19T10:24:41.295Z,2.20
2018-03-19T10:27:08.785Z,2.20
2018-03-19T10:29:36.239Z,2.20
2018-03-19T10:32:03.705Z,2.20
2018-03-19T10:34:31.160Z,2.30
2018-03-19T10:36:58.616Z,2.40
2018-03-19T10:39:26.063Z,2.50
2018-03-19T10:41:53.542Z,2.50
2018-03-19T10:44:22.522Z,2.40
2018-03-19T10:46:49.970Z,2.40
2018-03-19T10:49:17.472Z,2.50
2018-03-19T10:51:44.963Z,2.50
2018-03-19T10:54:13.200Z,2.50
2018-03-19T10:56:41.456Z,2.50
2018-03-19T10:59:09.047Z,2.50
2018-03-19T11:01:43.396Z,2.50
2018-03-19T11:04:10.852Z,2.50
2018-03-19T11:06:44.729Z,2.40
2018-03-19T11:09:18.755Z,2.50
2018-03-19T11:11:47.000Z,2.60
2018-03-19T11:14:15.972Z,2.50
2018-03-19T11:16:44.230Z,2.50
2018-03-19T11:19:11.676Z,2.50
2018-03-19T11:21:39.151Z,2.40
2018-03-19T11:24:06.617Z,2.40
2018-03-19T11:26:34.098Z,2.30
2018-03-19T11:29:01.546Z,2.20
2018-03-19T11:31:29.015Z,2.30
2018-03-19T11:33:57.258Z,2.40
2018-03-19T11:36:24.721Z,2.40
2018-03-19T11:38:52.180Z,2.40
2018-03-19T11:41:19.643Z,2.50
2018-03-19T11:43:47.097Z,2.50
2018-03-19T11:46:14.560Z,2.60
2018-03-19T11:48:42.037Z,2.60
2018-03-19T11:51:09.488Z,2.70
2018-03-19T11:53:36.957Z,2.70
2018-03-19T11:56:05.202Z,2.60
2018-03-19T11:58:32.679Z,2.60
2018-03-19T12:01:00.136Z,2.70
2018-03-19T12:03:27.616Z,2.80
2018-03-19T12:05:56.383Z,2.90
2018-03-19T12:08:23.849Z,2.80
2018-03-19T12:10:51.291Z,2.90
2018-03-19T12:13:18.748Z,3.00
2018-03-19T12:15:46.195Z,3.10
2018-03-19T12:18:13.660Z,3.10
2018-03-19T12:20:41.208Z,2.90
2018-03-19T12:23:08.673Z,3.10
2018-03-19T12:25:36.126Z,3.20
2018-03-19T12:28:03.613Z,3.30
2018-03-19T12:30:31.835Z,3.30
2018-03-19T12:32:59.306Z,3.30
2018-03-19T12:35:28.128Z,3.40
2018-03-19T12:37:55.564Z,3.20
2018-03-19T12:40:23.065Z,3.00
2018-03-19T12:42:51.264Z,2.70
2018-03-19T12:45:18.738Z,2.70
2018-03-19T12:47:46.193Z,2.70
2018-03-19T12:50:13.665Z,2.50
2018-03-19T12:52:41.126Z,2.60
2018-03-19T12:55:08.673Z,2.20
2018-03-19T12:57:36.155Z,2.00
2018-03-19T13:00:03.636Z,2.30
2018-03-19T13:02:31.905Z,2.00
2018-03-19T13:05:00.142Z,1.60
2018-03-19T13:07:27.594Z,1.60
2018-03-19T13:09:55.063Z,1.70
2018-03-19T13:12:22.508Z,1.70
2018-03-19T13:14:49.969Z,1.70
2018-03-19T13:17:36.905Z,1.40
2018-03-19T13:20:04.384Z,1.70
2018-03-19T13:22:32.618Z,2.00
2018-03-19T13:25:00.085Z,2.00
2018-03-19T13:27:27.528Z,1.90
2018-03-19T13:29:55.013Z,1.90
2018-03-19T13:32:22.465Z,2.00
2018-03-19T13:34:49.952Z,1.70
2018-03-19T13:37:19.101Z,1.90
2018-03-19T13:39:46.569Z,1.90
2018-03-19T13:42:14.029Z,2.00
2018-03-19T13:44:41.513Z,1.80
2018-03-19T13:47:09.748Z,1.70
2018-03-19T13:49:37.205Z,1.70
2018-03-19T13:52:04.668Z,1.50
2018-03-19T13:54:32.958Z,1.60
2018-03-19T13:57:00.441Z,1.50
2018-03-19T13:59:28.975Z,1.60
2018-03-19T14:01:56.424Z,1.60
2018-03-19T14:04:23.955Z,1.60
2018-03-19T14:06:51.370Z,1.50
2018-03-19T14:09:18.818Z,1.50
2018-03-19T14:11:46.271Z,1.50
2018-03-19T14:14:13.726Z,1.40
2018-03-19T14:16:41.183Z,1.30
2018-03-19T14:19:08.663Z,1.20
2018-03-19T14:21:36.129Z,1.30
2018-03-19T14:24:04.367Z,1.40
2018-03-19T14:26:31.822Z,1.40
2018-03-19T14:28:59.268Z,1.30
2018-03-19T14:31:26.741Z,1.40
2018-03-19T14:33:54.192Z,1.40
2018-03-19T14:36:21.770Z,1.30
2018-03-19T14:38:49.329Z,1.20
2018-03-19T14:41:16.806Z,1.30
2018-03-19T14:43:45.196Z,1.40
2018-03-19T14:46:13.460Z,1.50
2018-03-19T14:48:40.983Z,1.40
2018-03-19T14:51:08.578Z,1.40
2018-03-19T14:53:36.042Z,1.30
2018-03-19T14:56:03.512Z,1.40
2018-03-19T14:58:31.861Z,1.30
2018-03-19T15:01:00.851Z,1.20
2018-03-19T15:03:28.321Z,1.20
2018-03-19T15:05:55.785Z,1.30
2018-03-19T15:08:23.241Z,1.10
2018-03-19T15:10:51.517Z,1.10
2018-03-19T15:13:18.960Z,1.00
2018-03-19T15:15:46.421Z,1.00
2018-03-19T15:18:14.013Z,1.00
2018-03-19T15:20:42.229Z,1.00
2018-03-19T15:23:09.727Z,1.00
2018-03-19T15:25:38.021Z,0.90
2018-03-19T15:28:06.259Z,0.90
2018-03-19T15:30:33.752Z,0.90
2018-03-19T15:33:01.208Z,0.90
2018-03-19T15:35:28.946Z,0.90
2018-03-19T15:37:56.516Z,0.90
2018-03-19T15:40:24.016Z,0.80
2018-03-19T15:42:51.490Z,0.80
2018-03-19T15:45:18.954Z,0.80
2018-03-19T15:47:46.419Z,0.70
2018-03-19T15:50:13.880Z,0.70
2018-03-19T15:52:41.339Z,0.70
2018-03-19T15:55:08.805Z,0.70
2018-03-19T15:57:36.270Z,0.60
2018-03-19T16:00:03.795Z,0.60
2018-03-19T16:02:31.246Z,0.60
2018-03-19T16:04:58.701Z,0.60
2018-03-19T16:07:26.168Z,0.70
2018-03-19T16:09:53.629Z,0.60
2018-03-19T16:12:21.086Z,0.70
2018-03-19T16:14:48.610Z,0.70
2018-03-19T16:17:16.036Z,0.70
2018-03-19T16:19:44.268Z,0.60
2018-03-19T16:22:11.733Z,0.60
2018-03-19T16:24:39.195Z,0.60
2018-03-19T16:27:06.645Z,0.60
2018-03-19T16:29:34.109Z,0.50
2018-03-19T16:32:01.564Z,0.40
2018-03-19T16:34:29.057Z,0.40
2018-03-19T16:36:57.279Z,0.50
2018-03-19T16:39:24.743Z,0.50
2018-03-19T16:41:52.275Z,0.50
2018-03-19T16:44:19.739Z,0.40
2018-03-19T16:46:47.195Z,0.50
2018-03-19T16:49:14.657Z,0.40
2018-03-19T16:51:42.108Z,0.40
2018-03-19T16:54:09.593Z,0.40
2018-03-19T16:56:37.956Z,0.50
2018-03-19T16:59:05.420Z,0.40
2018-03-19T17:01:32.882Z,0.40
2018-03-19T17:04:00.349Z,0.40
2018-03-19T17:06:27.805Z,0.40
2018-03-19T17:08:55.290Z,0.50
2018-03-19T17:11:22.741Z,0.40
2018-03-19T17:13:50.230Z,0.30
2018-03-19T17:16:18.460Z,0.40
2018-03-19T17:18:45.927Z,0.40
2018-03-19T17:21:13.371Z,0.40
2018-03-19T17:23:40.834Z,0.30
2018-03-19T17:26:08.293Z,0.30
2018-03-19T17:28:35.764Z,0.30
2018-03-19T17:31:03.993Z,0.40
2018-03-19T17:33:31.456Z,0.40
2018-03-19T17:35:58.940Z,0.30
2018-03-19T17:38:26.380Z,0.30
2018-03-19T17:40:53.872Z,0.40
2018-03-19T17:43:22.817Z,0.30
2018-03-19T17:45:50.271Z,0.30
2018-03-19T17:48:17.745Z,0.30
2018-03-19T17:50:45.205Z,0.30
2018-03-19T17:53:12.676Z,0.20
2018-03-19T17:55:40.149Z,0.20
2018-03-19T17:58:07.609Z,0.20
2018-03-19T18:00:35.069Z,0.30
2018-03-19T18:03:02.526Z,0.20
2018-03-19T18:05:29.989Z,0.30
2018-03-19T18:07:58.217Z,0.20
2018-03-19T18:10:25.689Z,0.20
2018-03-19T18:12:53.138Z,0.20
2018-03-19T18:15:20.622Z,0.20
2018-03-19T18:17:48.076Z,0.20
2018-03-19T18:20:17.057Z,0.20
2018-03-19T18:22:44.520Z,0.20
2018-03-19T18:25:12.237Z,0.20
2018-03-19T18:27:39.713Z,0.30
2018-03-19T18:30:07.168Z,0.20
2018-03-19T18:32:35.390Z,0.20
2018-03-19T18:35:02.847Z,0.20
2018-03-19T18:37:30.331Z,0.20
2018-03-19T18:39:58.536Z,0.20
2018-03-19T18:42:26.036Z,0.20
2018-03-19T18:44:53.484Z,0.20
2018-03-19T18:47:20.985Z,0.20
2018-03-19T18:49:48.443Z,0.20
2018-03-19T18:52:15.937Z,0.10
2018-03-19T18:54:43.431Z,0.20
2018-03-19T18:57:12.407Z,0.20
2018-03-19T18:59:39.876Z,0.20
2018-03-19T19:02:07.353Z,0.20
2018-03-19T19:04:34.825Z,0.20
2018-03-19T19:07:03.070Z,0.10
2018-03-19T19:09:31.296Z,0.20
2018-03-19T19:11:58.785Z,0.20
2018-03-19T19:14:26.252Z,0.20
2018-03-19T19:16:53.716Z,0.20
2018-03-19T19:19:21.186Z,0.20
2018-03-19T19:21:49.571Z,0.20
2018-03-19T19:24:17.813Z,0.10
2018-03-19T19:26:45.304Z,0.10
2018-03-19T19:29:13.538Z,0.10
2018-03-19T19:31:41.000Z,0.00
2018-03-19T19:34:08.471Z,0.10
2018-03-19T19:36:37.457Z,0.10
2018-03-19T19:39:04.929Z,0.10
2018-03-19T19:41:32.398Z,0.10
2018-03-19T19:44:00.645Z,0.10
2018-03-19T19:46:28.144Z,0.10
2018-03-19T19:48:55.577Z,0.20
2018-03-19T19:51:23.853Z,0.10
2018-03-19T19:53:51.325Z,0.20
2018-03-19T19:56:19.589Z,0.20
2018-03-19T19:58:47.060Z,0.20
2018-03-19T20:01:15.309Z,0.10
2018-03-19T20:03:42.785Z,0.10
2018-03-19T20:06:11.020Z,0.10
2018-03-19T20:08:38.531Z,0.10
2018-03-19T20:11:06.773Z,0.00
2018-03-19T20:13:34.245Z,0.00
2018-03-19T20:16:01.741Z,0.10
2018-03-19T20:18:29.209Z,0.10
2018-03-19T20:20:56.688Z,0.20
2018-03-19T20:23:24.182Z,0.10
2018-03-19T20:25:53.352Z,0.00
2018-03-19T20:28:20.824Z,0.10
2018-03-19T20:30:48.319Z,0.10
2018-03-19T20:33:16.560Z,0.00
2018-03-19T20:35:44.033Z,0.00
2018-03-19T20:38:12.344Z,-0.10
2018-03-19T20:40:39.821Z,-0.10
2018-03-19T20:43:07.282Z,0.10
2018-03-19T20:45:35.516Z,0.00
2018-03-19T20:48:04.040Z,0.00
2018-03-19T20:50:31.508Z,0.00
2018-03-19T20:52:58.955Z,0.00
2018-03-19T20:55:26.489Z,-0.10
2018-03-19T20:57:53.924Z,0.00
2018-03-19T21:00:21.444Z,0.00
2018-03-19T21:02:48.897Z,-0.10
2018-03-19T21:05:16.381Z,0.00
2018-03-19T21:07:44.614Z,0.00
2018-03-19T21:10:12.077Z,0.00
2018-03-19T21:12:39.541Z,0.00
2018-03-19T21:15:07.013Z,0.00
2018-03-19T21:17:34.465Z,0.00
2018-03-19T21:20:01.930Z,0.00
2018-03-19T21:22:29.381Z,0.00
2018-03-19T21:24:56.848Z,0.00
2018-03-19T21:27:24.301Z,0.00
2018-03-19T21:29:53.296Z,0.00
2018-03-19T21:32:22.062Z,0.10
2018-03-19T21:34:49.517Z,0.10
2018-03-19T21:37:16.973Z,0.00
2018-03-19T21:39:44.432Z,0.00
2018-03-19T21:42:11.931Z,-0.10
2018-03-19T21:44:40.156Z,0.10
2018-03-19T21:47:07.607Z,0.00
2018-03-19T21:49:35.067Z,0.10
2018-03-19T21:52:02.529Z,0.00
2018-03-19T21:54:29.988Z,0.10
2018-03-19T21:56:57.448Z,0.10
2018-03-19T21:59:25.459Z,0.10
2018-03-19T22:01:52.889Z,0.20
2018-03-19T22:04:20.352Z,0.10
2018-03-19T22:06:49.324Z,0.10
2018-03-19T22:09:16.780Z,0.10
2018-03-19T22:11:44.241Z,0.10
2018-03-19T22:14:11.702Z,0.10
2018-03-19T22:16:39.166Z,0.10
2018-03-19T22:19:06.624Z,0.00
2018-03-19T22:21:34.079Z,-0.10
2018-03-19T22:24:01.538Z,0.00
2018-03-19T22:26:29.009Z,0.10
2018-03-19T22:28:57.212Z,0.10
2018-03-19T22:31:24.670Z,0.00
2018-03-19T22:33:52.914Z,0.00
2018-03-19T22:36:20.404Z,0.00
2018-03-19T22:38:48.621Z,0.00
2018-03-19T22:41:16.093Z,0.00
2018-03-19T22:43:43.550Z,0.00
2018-03-19T22:46:11.030Z,-0.10
2018-03-19T22:48:38.484Z,-0.10
2018-03-19T22:51:05.969Z,0.00
2018-03-19T22:53:34.197Z,-0.10
2018-03-19T22:56:01.673Z,-0.10
2018-03-19T22:58:29.136Z,-0.20
2018-03-19T23:00:57.591Z,-0.10
2018-03-19T23:03:25.047Z,-0.10
2018-03-19T23:05:52.504Z,-0.20
2018-03-19T23:08:19.973Z,-0.20
2018-03-19T23:10:48.214Z,-0.10
2018-03-19T23:13:15.672Z,-0.10
2018-03-19T23:15:43.132Z,-0.20
2018-03-19T23:18:10.593Z,-0.10
2018-03-19T23:20:38.069Z,-0.10
2018-03-19T23:23:06.317Z,-0.10
2018-03-19T23:25:33.773Z,-0.20
2018-03-19T23:28:01.223Z,-0.20
2018-03-19T23:30:28.679Z,-0.20
2018-03-19T23:32:56.128Z,-0.20
2018-03-19T23:35:23.594Z,-0.20
2018-03-19T23:37:51.054Z,-0.20
2018-03-19T23:40:18.517Z,-0.30
2018-03-19T23:42:46.003Z,-0.30
2018-03-19T23:45:13.476Z,-0.30
2018-03-19T23:47:40.937Z,-0.30
2018-03-19T23:50:08.409Z,-0.30
2018-03-19T23:52:36.648Z,-0.30
2018-03-19T23:55:04.109Z,-0.30
2018-03-19T23:57:31.582Z,-0.30
2018-03-19T23:59:59.039Z,-0.40
